createdAt,value
2018-03-15T00:01:36.841Z,99313.56
2018-03-15T00:04:02.784Z,99316.53
2018-03-15T00:06:28.718Z,99327.38
2018-03-15T00:08:54.674Z,99324.53
2018-03-15T00:11:20.628Z,99317.80
2018-03-15T00:13:46.594Z,99321.42
2018-03-15T00:16:12.539Z,99315.86
2018-03-15T00:18:38.489Z,99312.11
2018-03-15T00:21:04.451Z,99308.03
2018-03-15T00:23:30.403Z,99307.02
2018-03-15T00:25:56.344Z,99307.85
2018-03-15T00:28:22.299Z,99312.31
2018-03-15T00:30:48.287Z,99299.77
2018-03-15T00:33:14.241Z,99301.87
2018-03-15T00:35:40.201Z,99292.98
2018-03-15T00:38:06.153Z,99290.12
2018-03-15T00:40:32.105Z,99291.21
2018-03-15T00:42:58.075Z,99288.92
2018-03-15T00:45:24.029Z,99285.11
2018-03-15T00:47:49.976Z,99289.53
2018-03-15T00:50:15.914Z,99278.19
2018-03-15T00:52:41.847Z,99273.95
2018-03-15T00:55:07.800Z,99270.39
2018-03-15T00:57:33.782Z,99274.41
2018-03-15T00:59:59.741Z,99275.83
2018-03-15T01:02:25.783Z,99277.45
2018-03-15T01:04:51.745Z,99266.82
2018-03-15T01:07:17.691Z,99261.14
2018-03-15T01:09:43.637Z,99263.88
2018-03-15T01:12:09.625Z,99254.78
2018-03-15T01:14:35.593Z,99253.78
2018-03-15T01:17:01.577Z,99248.23
2018-03-15T01:19:27.538Z,99244.84
2018-03-15T01:21:53.497Z,99244.49
2018-03-15T01:24:19.459Z,99237.94
2018-03-15T01:26:45.412Z,99236.55
2018-03-15T01:29:11.345Z,99229.00
2018-03-15T01:31:37.289Z,99226.89
2018-03-15T01:34:03.231Z,99218.84
2018-03-15T01:36:29.204Z,99218.41
2018-03-15T01:38:55.169Z,99216.20
2018-03-15T01:41:21.133Z,99209.14
2018-03-15T01:43:47.075Z,99208.36
2018-03-15T01:46:13.037Z,99209.46
2018-03-15T01:48:38.984Z,99200.95
2018-03-15T01:51:04.924Z,99196.78
2018-03-15T01:53:30.890Z,99197.30
2018-03-15T01:55:56.843Z,99197.19
2018-03-15T01:58:22.783Z,99191.32
2018-03-15T02:00:48.719Z,99187.67
2018-03-15T02:03:14.671Z,99180.12
2018-03-15T02:05:40.602Z,99182.91
2018-03-15T02:08:06.553Z,99176.86
2018-03-15T02:10:32.489Z,99179.88
2018-03-15T02:12:58.464Z,99174.48
2018-03-15T02:15:24.399Z,99176.06
2018-03-15T02:17:50.334Z,99173.52
2018-03-15T02:20:16.274Z,99173.52
2018-03-15T02:22:42.214Z,99164.95
2018-03-15T02:25:08.159Z,99159.66
2018-03-15T02:27:34.099Z,99157.53
2018-03-15T02:30:00.051Z,99156.45
2018-03-15T02:32:25.985Z,99164.81
2018-03-15T02:34:51.919Z,99163.82
2018-03-15T02:37:17.872Z,99153.37
2018-03-15T02:39:43.822Z,99146.83
2018-03-15T02:42:09.769Z,99148.80
2018-03-15T02:44:35.723Z,99148.84
2018-03-15T02:47:01.691Z,99146.20
2018-03-15T02:49:27.634Z,99145.08
2018-03-15T02:51:53.578Z,99140.64
2018-03-15T02:54:19.536Z,99148.17
2018-03-15T02:56:45.495Z,99141.36
2018-03-15T02:59:11.435Z,99141.57
2018-03-15T03:01:37.366Z,99136.95
2018-03-15T03:04:03.342Z,99137.23
2018-03-15T03:06:29.299Z,99147.64
2018-03-15T03:08:55.268Z,99133.01
2018-03-15T03:11:21.229Z,99135.10
2018-03-15T03:13:47.188Z,99134.42
2018-03-15T03:16:13.154Z,99133.59
2018-03-15T03:18:39.091Z,99132.87
2018-03-15T03:21:05.058Z,99128.48
2018-03-15T03:23:30.994Z,99129.34
2018-03-15T03:25:56.950Z,99123.13
2018-03-15T03:28:22.898Z,99121.88
2018-03-15T03:30:48.853Z,99124.73
2018-03-15T03:33:14.814Z,99119.23
2018-03-15T03:35:40.764Z,99116.38
2018-03-15T03:38:06.711Z,99117.53
2018-03-15T03:40:32.654Z,99115.80
2018-03-15T03:42:58.599Z,99117.20
2018-03-15T03:45:24.575Z,99119.73
2018-03-15T03:47:50.513Z,99118.85
2018-03-15T03:50:16.458Z,99120.69
2018-03-15T03:52:42.394Z,99120.41
2018-03-15T03:55:08.351Z,99117.23
2018-03-15T03:57:34.308Z,99120.04
2018-03-15T04:00:00.302Z,99117.81
2018-03-15T04:02:26.275Z,99124.62
2018-03-15T04:04:52.240Z,99126.91
2018-03-15T04:07:18.192Z,99121.52
2018-03-15T04:09:44.164Z,99118.79
2018-03-15T04:12:10.114Z,99120.39
2018-03-15T04:14:36.072Z,99116.75
2018-03-15T04:17:02.008Z,99119.02
2018-03-15T04:19:27.969Z,99114.63
2018-03-15T04:21:53.911Z,99122.17
2018-03-15T04:24:19.882Z,99125.80
2018-03-15T04:26:45.810Z,99122.03
2018-03-15T04:29:11.777Z,99129.72
2018-03-15T04:31:37.721Z,99124.72
2018-03-15T04:34:03.685Z,99118.88
2018-03-15T04:36:29.627Z,99117.73
2018-03-15T04:38:55.580Z,99112.64
2018-03-15T04:41:21.545Z,99110.18
2018-03-15T04:43:47.517Z,99109.10
2018-03-15T04:46:13.454Z,99114.20
2018-03-15T04:48:39.441Z,99117.55
2018-03-15T04:51:10.010Z,99113.56
2018-03-15T04:53:35.999Z,99105.04
2018-03-15T04:56:01.938Z,99108.02
2018-03-15T04:58:27.907Z,99107.66
2018-03-15T05:00:58.400Z,99117.33
2018-03-15T05:03:24.356Z,99110.98
2018-03-15T05:05:50.326Z,99118.51
2018-03-15T05:08:16.279Z,99120.98
2018-03-15T05:10:42.258Z,99122.63
2018-03-15T05:13:08.218Z,99116.76
2018-03-15T05:15:34.174Z,99116.16
2018-03-15T05:18:00.142Z,99124.03
2018-03-15T05:20:26.106Z,99125.30
2018-03-15T05:22:52.078Z,99121.56
2018-03-15T05:25:21.715Z,99123.59
2018-03-15T05:27:49.635Z,99121.72
2018-03-15T05:30:15.619Z,99114.41
2018-03-15T05:32:41.569Z,99115.91
2018-03-15T05:35:07.536Z,99119.28
2018-03-15T05:37:33.479Z,99120.98
2018-03-15T05:39:59.430Z,99117.36
2018-03-15T05:42:25.386Z,99125.06
2018-03-15T05:44:51.383Z,99119.92
2018-03-15T05:47:17.309Z,99119.52
2018-03-15T05:49:43.285Z,99117.36
2018-03-15T05:52:09.253Z,99116.98
2018-03-15T05:54:35.229Z,99123.53
2018-03-15T05:57:01.183Z,99116.82
2018-03-15T05:59:27.121Z,99119.02
2018-03-15T06:01:53.180Z,99130.80
2018-03-15T06:04:19.133Z,99126.37
2018-03-15T06:06:45.094Z,99134.25
2018-03-15T06:09:11.022Z,99134.14
2018-03-15T06:11:36.971Z,99128.09
2018-03-15T06:14:02.945Z,99136.23
2018-03-15T06:16:28.914Z,99131.16
2018-03-15T06:18:54.858Z,99142.64
2018-03-15T06:21:20.809Z,99141.63
2018-03-15T06:23:46.777Z,99140.60
2018-03-15T06:26:12.828Z,99143.72
2018-03-15T06:28:38.791Z,99141.38
2018-03-15T06:31:04.792Z,99144.53
2018-03-15T06:33:30.741Z,99141.27
2018-03-15T06:35:56.668Z,99145.97
2018-03-15T06:38:22.612Z,99148.55
2018-03-15T06:40:48.556Z,99141.66
2018-03-15T06:43:14.509Z,99146.44
2018-03-15T06:45:40.466Z,99150.47
2018-03-15T06:48:06.414Z,99152.17
2018-03-15T06:50:32.384Z,99154.41
2018-03-15T06:52:58.362Z,99152.28
2018-03-15T06:55:24.306Z,99150.47
2018-03-15T06:57:50.272Z,99150.15
2018-03-15T07:00:16.209Z,99153.28
2018-03-15T07:02:42.164Z,99152.13
2018-03-15T07:05:08.131Z,99153.83
2018-03-15T07:07:34.110Z,99159.61
2018-03-15T07:10:00.070Z,99157.45
2018-03-15T07:12:26.019Z,99163.55
2018-03-15T07:14:51.962Z,99160.91
2018-03-15T07:17:17.930Z,99159.76
2018-03-15T07:19:43.875Z,99163.06
2018-03-15T07:22:09.837Z,99165.30
2018-03-15T07:24:35.798Z,99161.12
2018-03-15T07:27:01.762Z,99162.16
2018-03-15T07:29:27.722Z,99163.97
2018-03-15T07:31:53.646Z,99165.11
2018-03-15T07:34:19.593Z,99177.36
2018-03-15T07:36:45.548Z,99160.33
2018-03-15T07:39:11.504Z,99156.47
2018-03-15T07:41:37.478Z,99167.53
2018-03-15T07:44:03.443Z,99155.09
2018-03-15T07:46:29.402Z,99159.97
2018-03-15T07:48:55.334Z,99166.67
2018-03-15T07:51:21.275Z,99159.80
2018-03-15T07:53:47.234Z,99156.34
2018-03-15T07:56:13.203Z,99154.05
2018-03-15T07:58:39.154Z,99153.87
2018-03-15T08:01:05.110Z,99157.00
2018-03-15T08:03:31.070Z,99148.03
2018-03-15T08:05:57.028Z,99138.56
2018-03-15T08:08:22.989Z,99139.40
2018-03-15T08:10:48.929Z,99137.58
2018-03-15T08:13:14.880Z,99134.78
2018-03-15T08:15:40.826Z,99128.91
2018-03-15T08:18:06.780Z,99133.27
2018-03-15T08:20:32.744Z,99125.30
2018-03-15T08:22:58.713Z,99115.64
2018-03-15T08:25:24.672Z,99117.86
2018-03-15T08:27:50.632Z,99112.27
2018-03-15T08:30:16.576Z,99103.42
2018-03-15T08:32:42.536Z,99104.34
2018-03-15T08:35:08.522Z,99100.95
2018-03-15T08:37:34.490Z,99090.62
2018-03-15T08:40:00.452Z,99089.30
2018-03-15T08:42:26.432Z,99089.77
2018-03-15T08:44:52.431Z,99087.88
2018-03-15T08:47:18.380Z,99079.98
2018-03-15T08:49:44.321Z,99083.55
2018-03-15T08:52:10.308Z,99073.17
2018-03-15T08:54:36.254Z,99073.67
2018-03-15T08:57:02.241Z,99077.91
2018-03-15T08:59:28.167Z,99069.55
2018-03-15T09:01:54.131Z,99063.66
2018-03-15T09:04:20.148Z,99061.90
2018-03-15T09:06:46.058Z,99050.75
2018-03-15T09:09:12.013Z,99051.27
2018-03-15T09:11:37.950Z,99052.56
2018-03-15T09:14:03.907Z,99044.26
2018-03-15T09:16:29.868Z,99040.37
2018-03-15T09:18:55.805Z,99025.67
2018-03-15T09:21:21.747Z,99042.52
2018-03-15T09:23:47.709Z,99029.97
2018-03-15T09:26:13.643Z,99017.13
2018-03-15T09:28:39.600Z,99019.28
2018-03-15T09:31:05.656Z,99013.56
2018-03-15T09:33:31.643Z,99005.60
2018-03-15T09:35:57.618Z,99012.73
2018-03-15T09:38:23.592Z,99022.33
2018-03-15T09:40:49.569Z,99007.91
2018-03-15T09:43:15.519Z,99012.10
2018-03-15T09:45:41.543Z,98997.53
2018-03-15T09:48:07.475Z,98998.00
2018-03-15T09:50:33.456Z,98994.70
2018-03-15T09:52:59.415Z,98986.72
2018-03-15T09:55:25.378Z,98990.08
2018-03-15T09:57:51.341Z,98991.23
2018-03-15T10:00:17.303Z,98987.11
2018-03-15T10:02:43.255Z,98976.17
2018-03-15T10:05:09.197Z,98976.23
2018-03-15T10:07:35.169Z,98975.00
2018-03-15T10:10:01.161Z,98974.98
2018-03-15T10:12:27.116Z,98976.13
2018-03-15T10:14:53.118Z,98970.27
2018-03-15T10:17:19.115Z,98966.17
2018-03-15T10:19:45.090Z,98966.55
2018-03-15T10:22:11.075Z,98958.59
2018-03-15T10:24:37.065Z,98954.90
2018-03-15T10:27:03.067Z,98955.64
2018-03-15T10:29:29.087Z,98941.07
2018-03-15T10:31:55.062Z,98933.54
2018-03-15T10:34:21.012Z,98931.02
2018-03-15T10:36:46.959Z,98945.16
2018-03-15T10:39:12.933Z,98931.40
2018-03-15T10:41:38.942Z,98922.23
2018-03-15T10:44:05.024Z,98924.70
2018-03-15T10:46:31.007Z,98920.06
2018-03-15T10:48:56.970Z,98912.99
2018-03-15T10:51:22.936Z,98904.25
2018-03-15T10:53:48.903Z,98905.45
2018-03-15T10:56:14.890Z,98903.39
2018-03-15T10:58:41.172Z,98880.41
2018-03-15T11:01:07.180Z,98886.26
2018-03-15T11:03:33.158Z,98875.79
2018-03-15T11:05:59.108Z,98878.70
2018-03-15T11:08:25.076Z,98871.98
2018-03-15T11:10:51.029Z,98873.26
2018-03-15T11:13:17.008Z,98874.45
2018-03-15T11:15:42.975Z,98861.95
2018-03-15T11:18:08.978Z,98872.00
2018-03-15T11:20:34.872Z,98848.55
2018-03-15T11:23:00.834Z,98848.13
2018-03-15T11:25:26.797Z,98855.27
2018-03-15T11:27:52.770Z,98847.24
2018-03-15T11:30:18.726Z,98848.55
2018-03-15T11:32:44.684Z,98844.76
2018-03-15T11:35:10.650Z,98845.55
2018-03-15T11:37:36.612Z,98836.80
2018-03-15T11:40:02.590Z,98829.66
2018-03-15T11:42:28.564Z,98834.25
2018-03-15T11:44:54.530Z,98828.80
2018-03-15T11:47:20.478Z,98819.56
2018-03-15T11:49:46.449Z,98819.13
2018-03-15T11:52:12.428Z,98819.16
2018-03-15T11:54:38.380Z,98812.86
2018-03-15T11:57:04.436Z,98796.48
2018-03-15T11:59:30.387Z,98806.59
2018-03-15T12:01:56.350Z,98814.97
2018-03-15T12:04:22.439Z,98798.20
2018-03-15T12:06:48.421Z,98794.84
2018-03-15T12:09:14.398Z,98798.16
2018-03-15T12:11:42.414Z,98791.00
2018-03-15T12:14:08.533Z,98785.64
2018-03-15T12:16:34.499Z,98770.98
2018-03-15T12:19:00.477Z,98767.55
2018-03-15T12:21:26.431Z,98757.91
2018-03-15T12:23:52.387Z,98742.36
2018-03-15T12:26:18.382Z,98749.41
2018-03-15T12:28:44.326Z,98744.49
2018-03-15T12:31:10.271Z,98746.97
2018-03-15T12:33:36.267Z,98737.27
2018-03-15T12:36:02.239Z,98743.44
2018-03-15T12:38:28.205Z,98748.58
2018-03-15T12:40:54.159Z,98748.14
2018-03-15T12:43:20.111Z,98743.55
2018-03-15T12:45:46.126Z,98733.49
2018-03-15T12:48:12.085Z,98738.13
2018-03-15T12:50:38.027Z,98743.47
2018-03-15T12:53:03.970Z,98722.53
2018-03-15T12:55:29.933Z,98716.97
2018-03-15T12:57:55.870Z,98721.36
2018-03-15T13:00:21.830Z,98732.34
2018-03-15T13:02:47.795Z,98726.25
2018-03-15T13:05:13.727Z,98729.08
2018-03-15T13:07:39.689Z,98737.09
2018-03-15T13:10:05.653Z,98704.82
2018-03-15T13:12:31.619Z,98705.15
2018-03-15T13:14:57.588Z,98701.70
2018-03-15T13:17:23.549Z,98712.27
2018-03-15T13:19:49.487Z,98705.47
2018-03-15T13:22:15.439Z,98703.24
2018-03-15T13:24:41.387Z,98697.47
2018-03-15T13:27:07.331Z,98691.17
2018-03-15T13:29:33.296Z,98696.67
2018-03-15T13:31:59.255Z,98686.08
2018-03-15T13:34:25.256Z,98692.08
2018-03-15T13:36:51.201Z,98687.09
2018-03-15T13:39:17.282Z,98680.79
2018-03-15T13:41:43.177Z,98673.10
2018-03-15T13:44:09.143Z,98695.03
2018-03-15T13:46:35.129Z,98693.47
2018-03-15T13:49:01.083Z,98687.91
2018-03-15T13:51:27.052Z,98680.75
2018-03-15T13:53:53.010Z,98683.64
2018-03-15T13:56:18.985Z,98686.53
2018-03-15T13:58:44.957Z,98681.87
2018-03-15T14:01:10.920Z,98671.49
2018-03-15T14:03:36.916Z,98667.34
2018-03-15T14:06:02.877Z,98670.28
2018-03-15T14:08:28.861Z,98678.19
2018-03-15T14:10:54.826Z,98676.11
2018-03-15T14:13:20.799Z,98668.86
2018-03-15T14:15:46.785Z,98664.31
2018-03-15T14:18:12.780Z,98660.16
2018-03-15T14:20:38.731Z,98656.82
2018-03-15T14:23:04.709Z,98645.05
2018-03-15T14:25:30.655Z,98649.55
2018-03-15T14:27:56.618Z,98649.06
2018-03-15T14:30:22.627Z,98658.36
2018-03-15T14:32:48.628Z,98636.45
2018-03-15T14:35:14.599Z,98627.27
2018-03-15T14:37:40.569Z,98625.47
2018-03-15T14:40:06.515Z,98630.53
2018-03-15T14:42:32.500Z,98621.49
2018-03-15T14:44:58.469Z,98613.39
2018-03-15T14:47:24.432Z,98608.84
2018-03-15T14:49:50.363Z,98622.25
2018-03-15T14:52:16.399Z,98618.31
2018-03-15T14:54:42.358Z,98617.59
2018-03-15T14:57:09.293Z,98631.33
2018-03-15T14:59:35.254Z,98618.76
2018-03-15T15:02:01.214Z,98620.78
2018-03-15T15:04:27.168Z,98632.14
2018-03-15T15:06:53.104Z,98631.19
2018-03-15T15:09:19.063Z,98634.89
2018-03-15T15:11:45.012Z,98639.55
2018-03-15T15:14:10.962Z,98638.92
2018-03-15T15:16:36.952Z,98643.13
2018-03-15T15:19:02.902Z,98631.77
2018-03-15T15:21:28.870Z,98621.73
2018-03-15T15:23:54.838Z,98627.55
2018-03-15T15:26:20.821Z,98617.50
2018-03-15T15:28:46.792Z,98604.92
2018-03-15T15:31:12.754Z,98603.73
2018-03-15T15:33:38.729Z,98602.47
2018-03-15T15:36:04.714Z,98601.58
2018-03-15T15:38:30.731Z,98599.84
2018-03-15T15:40:56.687Z,98602.62
2018-03-15T15:43:22.644Z,98588.45
2018-03-15T15:45:48.597Z,98611.49
2018-03-15T15:48:14.535Z,98596.69
2018-03-15T15:50:40.497Z,98591.19
2018-03-15T15:53:06.453Z,98602.60
2018-03-15T15:55:32.398Z,98619.88
2018-03-15T15:57:58.367Z,98612.13
2018-03-15T16:00:24.354Z,98620.55
2018-03-15T16:02:50.290Z,98610.25
2018-03-15T16:05:16.263Z,98621.91
2018-03-15T16:07:42.234Z,98619.13
2018-03-15T16:10:08.226Z,98643.34
2018-03-15T16:12:34.203Z,98655.93
2018-03-15T16:15:00.170Z,98646.83
2018-03-15T16:17:26.150Z,98650.13
2018-03-15T16:19:52.137Z,98653.94
2018-03-15T16:22:18.484Z,98659.84
2018-03-15T16:24:44.931Z,98655.15
2018-03-15T16:27:11.364Z,98653.48
2018-03-15T16:29:37.799Z,98662.66
2018-03-15T16:32:04.252Z,98657.96
2018-03-15T16:34:30.665Z,98658.81
2018-03-15T16:36:57.153Z,98659.02
2018-03-15T16:39:23.531Z,98658.54
2018-03-15T16:41:49.533Z,98656.50
2018-03-15T16:44:15.786Z,98662.09
2018-03-15T16:46:42.087Z,98660.41
2018-03-15T16:49:08.553Z,98663.79
2018-03-15T16:51:34.881Z,98656.22
2018-03-15T16:54:01.214Z,98654.94
2018-03-15T16:56:27.220Z,98660.05
2018-03-15T16:58:53.181Z,98662.07
2018-03-15T17:01:19.165Z,98665.33
2018-03-15T17:03:45.134Z,98668.56
2018-03-15T17:06:11.112Z,98660.95
2018-03-15T17:08:37.061Z,98667.70
2018-03-15T17:11:03.007Z,98663.47
2018-03-15T17:13:28.963Z,98665.98
2018-03-15T17:15:54.925Z,98663.16
2018-03-15T17:18:20.869Z,98667.23
2018-03-15T17:20:46.819Z,98667.27
2018-03-15T17:23:12.798Z,98664.78
2018-03-15T17:25:38.768Z,98666.41
2018-03-15T17:28:04.757Z,98658.39
2018-03-15T17:30:30.720Z,98658.84
2018-03-15T17:32:56.663Z,98660.92
2018-03-15T17:35:22.644Z,98667.20
2018-03-15T17:37:48.626Z,98663.00
2018-03-15T17:40:14.572Z,98665.84
2018-03-15T17:42:40.555Z,98659.66
2018-03-15T17:45:06.522Z,98658.00
2018-03-15T17:47:32.517Z,98652.87
2018-03-15T17:49:58.844Z,98655.47
2018-03-15T17:52:24.842Z,98649.78
2018-03-15T17:54:50.806Z,98645.57
2018-03-15T17:57:16.762Z,98648.41
2018-03-15T17:59:42.709Z,98639.75
2018-03-15T18:02:08.680Z,98640.91
2018-03-15T18:04:34.618Z,98635.36
2018-03-15T18:07:00.580Z,98637.08
2018-03-15T18:09:26.640Z,98642.27
2018-03-15T18:11:52.658Z,98638.78
2018-03-15T18:14:18.602Z,98638.71
2018-03-15T18:16:44.582Z,98642.12
2018-03-15T18:19:10.584Z,98642.26
2018-03-15T18:21:36.556Z,98644.41
2018-03-15T18:24:02.520Z,98644.95
2018-03-15T18:26:28.518Z,98648.16
2018-03-15T18:28:54.497Z,98649.83
2018-03-15T18:31:20.456Z,98647.09
2018-03-15T18:33:46.431Z,98648.30
2018-03-15T18:36:12.408Z,98641.98
2018-03-15T18:38:38.402Z,98646.73
2018-03-15T18:41:04.373Z,98647.14
2018-03-15T18:43:30.353Z,98651.02
2018-03-15T18:45:56.324Z,98647.61
2018-03-15T18:50:58.632Z,98643.42
2018-03-15T18:53:25.700Z,98636.27
2018-03-15T18:55:51.715Z,98623.02
2018-03-15T18:58:17.647Z,98645.59
2018-03-15T19:00:43.629Z,98647.34
2018-03-15T19:03:09.640Z,98644.81
2018-03-15T19:05:35.637Z,98642.75
2018-03-15T19:08:02.777Z,98633.52
2018-03-15T19:10:28.760Z,98637.29
2018-03-15T19:12:54.783Z,98636.45
2018-03-15T19:15:21.889Z,98634.77
2018-03-15T19:17:47.900Z,98631.00
2018-03-15T19:20:13.877Z,98628.91
2018-03-15T19:22:39.847Z,98629.77
2018-03-15T19:25:05.867Z,98625.62
2018-03-15T19:27:31.850Z,98628.53
2018-03-15T19:29:57.811Z,98626.42
2018-03-15T19:32:23.787Z,98628.10
2018-03-15T19:34:49.764Z,98633.09
2018-03-15T19:37:15.744Z,98631.00
2018-03-15T19:39:41.735Z,98633.50
2018-03-15T19:42:07.687Z,98627.27
2018-03-15T19:44:33.653Z,98624.78
2018-03-15T19:46:59.609Z,98627.28
2018-03-15T19:49:25.585Z,98630.59
2018-03-15T19:51:51.581Z,98625.22
2018-03-15T19:54:17.537Z,98628.98
2018-03-15T19:56:43.519Z,98625.58
2018-03-15T19:59:09.487Z,98628.03
2018-03-15T20:01:35.502Z,98626.47
2018-03-15T20:04:01.495Z,98632.73
2018-03-15T20:06:27.478Z,98632.27
2018-03-15T20:08:53.459Z,98627.70
2018-03-15T20:11:19.420Z,98625.55
2018-03-15T20:13:45.390Z,98631.88
2018-03-15T20:16:11.353Z,98626.45
2018-03-15T20:18:37.350Z,98617.66
2018-03-15T20:21:03.356Z,98626.02
2018-03-15T20:23:29.425Z,98616.81
2018-03-15T20:25:55.392Z,98618.08
2018-03-15T20:28:21.359Z,98619.75
2018-03-15T20:30:47.358Z,98620.61
2018-03-15T20:33:13.362Z,98614.73
2018-03-15T20:35:39.338Z,98612.66
2018-03-15T20:38:08.485Z,98619.80
2018-03-15T20:40:35.798Z,98619.38
2018-03-15T20:43:01.812Z,98616.05
2018-03-15T20:45:27.783Z,98621.06
2018-03-15T20:47:53.735Z,98625.98
2018-03-15T20:50:19.694Z,98624.39
2018-03-15T20:52:47.647Z,98608.09
2018-03-15T20:55:13.901Z,98622.30
2018-03-15T20:57:39.869Z,98613.09
2018-03-15T21:00:05.925Z,98614.37
2018-03-15T21:02:31.905Z,98614.71
2018-03-15T21:04:57.972Z,98598.03
2018-03-15T21:07:23.945Z,98613.52
2018-03-15T21:09:49.912Z,98612.26
2018-03-15T21:12:15.867Z,98611.87
2018-03-15T21:14:41.809Z,98610.14
2018-03-15T21:17:07.776Z,98602.67
2018-03-15T21:19:33.734Z,98600.98
2018-03-15T21:21:59.667Z,98598.44
2018-03-15T21:24:25.634Z,98598.07
2018-03-15T21:26:51.634Z,98594.73
2018-03-15T21:29:17.595Z,98600.98
2018-03-15T21:31:43.585Z,98601.37
2018-03-15T21:34:09.541Z,98602.63
2018-03-15T21:36:35.523Z,98603.08
2018-03-15T21:39:01.509Z,98602.67
2018-03-15T21:41:27.467Z,98604.33
2018-03-15T21:43:54.463Z,98598.87
2018-03-15T21:46:20.411Z,98595.52
2018-03-15T21:48:46.375Z,98595.52
2018-03-15T21:51:12.343Z,98592.19
2018-03-15T21:53:38.324Z,98585.55
2018-03-15T21:56:04.272Z,98587.17
2018-03-15T21:58:30.257Z,98590.08
2018-03-15T22:00:56.221Z,98587.98
2018-03-15T22:03:22.204Z,98586.77
2018-03-15T22:05:48.171Z,98581.36
2018-03-15T22:08:14.164Z,98576.33
2018-03-15T22:10:40.109Z,98580.92
2018-03-15T22:13:06.108Z,98578.39
2018-03-15T22:15:32.057Z,98576.70
2018-03-15T22:17:58.027Z,98564.20
2018-03-15T22:20:23.982Z,98560.41
2018-03-15T22:22:49.944Z,98558.34
2018-03-15T22:25:15.898Z,98549.55
2018-03-15T22:27:41.892Z,98551.25
2018-03-15T22:30:07.850Z,98549.14
2018-03-15T22:32:33.797Z,98541.63
2018-03-15T22:34:59.766Z,98538.28
2018-03-15T22:37:25.722Z,98537.04
2018-03-15T22:39:51.663Z,98531.62
2018-03-15T22:42:17.682Z,98531.19
2018-03-15T22:44:43.641Z,98532.88
2018-03-15T22:47:09.594Z,98524.91
2018-03-15T22:49:35.566Z,98529.93
2018-03-15T22:52:01.508Z,98537.87
2018-03-15T22:54:27.442Z,98535.36
2018-03-15T22:56:57.398Z,98538.58
2018-03-15T22:59:23.359Z,98532.77
2018-03-15T23:01:49.299Z,98530.67
2018-03-15T23:04:15.265Z,98531.56
2018-03-15T23:06:41.207Z,98531.92
2018-03-15T23:09:08.240Z,98537.75
2018-03-15T23:11:34.241Z,98525.67
2018-03-15T23:14:00.203Z,98525.22
2018-03-15T23:16:26.159Z,98529.87
2018-03-15T23:18:52.143Z,98525.56
2018-03-15T23:21:18.091Z,98525.67
2018-03-15T23:23:44.043Z,98530.68
2018-03-15T23:26:10.007Z,98536.17
2018-03-15T23:28:35.971Z,98530.70
2018-03-15T23:31:01.920Z,98535.75
2018-03-15T23:33:27.875Z,98529.91
2018-03-15T23:35:53.806Z,98531.56
2018-03-15T23:38:19.766Z,98536.59
2018-03-15T23:40:45.721Z,98534.09
2018-03-15T23:43:11.654Z,98529.47
2018-03-15T23:45:37.605Z,98523.24
2018-03-15T23:48:03.568Z,98534.11
2018-03-15T23:50:29.531Z,98530.32
2018-03-15T23:52:55.508Z,98528.67
2018-03-15T23:55:21.444Z,98535.77
2018-03-15T23:57:47.376Z,98532.05
